sensor_id;sensor_type;location;lat;lon;timestamp;P1;durP1;ratioP1;P2;durP2;ratioP2
3054;SDS011;1537;52.018;8.542;2022-10-16T00:01:07;11.83;;;6.67;;
3054;SDS011;1537;52.018;8.542;2022-10-16T00:04:39;8.27;;;6.13;;
3054;SDS011;1537;52.018;8.542;2022-10-16T00:08:03;7.47;;;6.47;;
3054;SDS011;1537;52.018;8.542;2022-10-16T00:11:31;14.43;;;7.00;;
3054;SDS011;1537;52.018;8.542;2022-10-16T00:14:58;10.27;;;6.87;;
3054;SDS011;1537;52.018;8.542;2022-10-16T00:18:24;7.90;;;7.10;;
3054;SDS011;1537;52.018;8.542;2022-10-16T00:21:48;8.60;;;6.30;;
3054;SDS011;1537;52.018;8.542;2022-10-16T00:25:30;10.90;;;7.40;;
3054;SDS011;1537;52.018;8.542;2022-10-16T00:28:55;7.27;;;6.40;;
3054;SDS011;1537;52.018;8.542;2022-10-16T00:32:19;8.60;;;7.17;;
3054;SDS011;1537;52.018;8.542;2022-10-16T00:35:45;13.00;;;7.30;;
3054;SDS011;1537;52.018;8.542;2022-10-16T00:39:10;9.67;;;7.57;;
3054;SDS011;1537;52.018;8.542;2022-10-16T00:42:36;8.30;;;7.40;;
3054;SDS011;1537;52.018;8.542;2022-10-16T00:46:01;8.47;;;7.57;;
3054;SDS011;1537;52.018;8.542;2022-10-16T00:49:27;9.00;;;7.03;;
3054;SDS011;1537;52.018;8.542;2022-10-16T00:52:54;9.50;;;7.33;;
3054;SDS011;1537;52.018;8.542;2022-10-16T00:56:19;10.27;;;8.00;;
3054;SDS011;1537;52.018;8.542;2022-10-16T00:59:43;10.10;;;8.10;;
3054;SDS011;1537;52.018;8.542;2022-10-16T01:03:21;8.97;;;8.13;;
3054;SDS011;1537;52.018;8.542;2022-10-16T01:06:49;10.63;;;8.20;;
3054;SDS011;1537;52.018;8.542;2022-10-16T01:10:26;14.17;;;8.23;;
3054;SDS011;1537;52.018;8.542;2022-10-16T01:13:55;9.00;;;7.73;;
3054;SDS011;1537;52.018;8.542;2022-10-16T01:17:25;10.90;;;8.40;;
3054;SDS011;1537;52.018;8.542;2022-10-16T01:20:58;11.90;;;7.83;;
3054;SDS011;1537;52.018;8.542;2022-10-16T01:24:27;9.57;;;7.40;;
3054;SDS011;1537;52.018;8.542;2022-10-16T01:27:57;11.00;;;7.63;;
3054;SDS011;1537;52.018;8.542;2022-10-16T01:31:27;10.43;;;8.57;;
3054;SDS011;1537;52.018;8.542;2022-10-16T01:34:57;9.60;;;6.80;;
3054;SDS011;1537;52.018;8.542;2022-10-16T01:38:25;13.37;;;7.90;;
3054;SDS011;1537;52.018;8.542;2022-10-16T01:41:56;11.30;;;6.67;;
3054;SDS011;1537;52.018;8.542;2022-10-16T01:45:27;7.90;;;6.37;;
3054;SDS011;1537;52.018;8.542;2022-10-16T01:48:52;9.70;;;7.30;;
3054;SDS011;1537;52.018;8.542;2022-10-16T01:52:21;9.93;;;7.13;;
3054;SDS011;1537;52.018;8.542;2022-10-16T01:55:49;11.73;;;7.43;;
3054;SDS011;1537;52.018;8.542;2022-10-16T01:59:17;7.73;;;6.50;;
3054;SDS011;1537;52.018;8.542;2022-10-16T02:02:46;11.13;;;7.13;;
3054;SDS011;1537;52.018;8.542;2022-10-16T02:06:13;9.07;;;7.13;;
3054;SDS011;1537;52.018;8.542;2022-10-16T02:09:37;12.13;;;7.23;;
3054;SDS011;1537;52.018;8.542;2022-10-16T02:13:03;12.27;;;7.77;;
3054;SDS011;1537;52.018;8.542;2022-10-16T02:16:34;7.20;;;5.70;;
3054;SDS011;1537;52.018;8.542;2022-10-16T02:20:02;8.07;;;6.23;;
3054;SDS011;1537;52.018;8.542;2022-10-16T02:23:29;9.90;;;6.93;;
3054;SDS011;1537;52.018;8.542;2022-10-16T02:27:01;8.00;;;5.83;;
3054;SDS011;1537;52.018;8.542;2022-10-16T02:30:32;8.67;;;5.60;;
3054;SDS011;1537;52.018;8.542;2022-10-16T02:33:58;7.43;;;5.63;;
3054;SDS011;1537;52.018;8.542;2022-10-16T02:37:26;7.80;;;6.33;;
3054;SDS011;1537;52.018;8.542;2022-10-16T02:40:51;9.27;;;5.83;;
3054;SDS011;1537;52.018;8.542;2022-10-16T02:44:16;8.07;;;4.80;;
3054;SDS011;1537;52.018;8.542;2022-10-16T02:47:40;6.23;;;4.97;;
3054;SDS011;1537;52.018;8.542;2022-10-16T02:51:07;8.10;;;5.53;;
3054;SDS011;1537;52.018;8.542;2022-10-16T02:54:33;8.00;;;5.00;;
3054;SDS011;1537;52.018;8.542;2022-10-16T02:57:56;7.87;;;6.10;;
3054;SDS011;1537;52.018;8.542;2022-10-16T03:01:22;10.43;;;5.80;;
3054;SDS011;1537;52.018;8.542;2022-10-16T03:04:46;9.20;;;5.60;;
3054;SDS011;1537;52.018;8.542;2022-10-16T03:08:10;8.73;;;5.87;;
3054;SDS011;1537;52.018;8.542;2022-10-16T03:11:36;9.97;;;6.10;;
3054;SDS011;1537;52.018;8.542;2022-10-16T03:15:00;14.43;;;6.07;;
3054;SDS011;1537;52.018;8.542;2022-10-16T03:18:24;6.43;;;5.10;;
3054;SDS011;1537;52.018;8.542;2022-10-16T03:21:48;7.00;;;5.67;;
3054;SDS011;1537;52.018;8.542;2022-10-16T03:25:12;13.87;;;7.33;;
3054;SDS011;1537;52.018;8.542;2022-10-16T03:28:38;11.00;;;5.20;;
3054;SDS011;1537;52.018;8.542;2022-10-16T03:32:01;9.80;;;5.03;;
3054;SDS011;1537;52.018;8.542;2022-10-16T03:35:25;10.20;;;5.13;;
3054;SDS011;1537;52.018;8.542;2022-10-16T03:38:51;7.53;;;5.63;;
3054;SDS011;1537;52.018;8.542;2022-10-16T03:42:18;7.30;;;5.30;;
3054;SDS011;1537;52.018;8.542;2022-10-16T03:45:44;8.87;;;5.53;;
3054;SDS011;1537;52.018;8.542;2022-10-16T03:49:07;8.50;;;5.10;;
3054;SDS011;1537;52.018;8.542;2022-10-16T03:52:31;6.60;;;5.50;;
3054;SDS011;1537;52.018;8.542;2022-10-16T03:55:55;5.40;;;4.50;;
3054;SDS011;1537;52.018;8.542;2022-10-16T03:59:20;12.00;;;6.30;;
3054;SDS011;1537;52.018;8.542;2022-10-16T04:02:48;6.07;;;5.00;;
3054;SDS011;1537;52.018;8.542;2022-10-16T04:06:14;6.47;;;5.43;;
3054;SDS011;1537;52.018;8.542;2022-10-16T04:09:38;6.97;;;4.57;;
3054;SDS011;1537;52.018;8.542;2022-10-16T04:13:02;5.33;;;4.53;;
3054;SDS011;1537;52.018;8.542;2022-10-16T04:16:26;20.17;;;6.00;;
3054;SDS011;1537;52.018;8.542;2022-10-16T04:19:52;4.97;;;4.47;;
3054;SDS011;1537;52.018;8.542;2022-10-16T04:23:15;7.60;;;4.20;;
3054;SDS011;1537;52.018;8.542;2022-10-16T04:26:39;6.83;;;4.67;;
3054;SDS011;1537;52.018;8.542;2022-10-16T04:30:04;6.87;;;5.10;;
3054;SDS011;1537;52.018;8.542;2022-10-16T04:33:28;6.40;;;4.67;;
3054;SDS011;1537;52.018;8.542;2022-10-16T04:36:54;4.67;;;3.93;;
3054;SDS011;1537;52.018;8.542;2022-10-16T04:40:21;5.30;;;4.53;;
3054;SDS011;1537;52.018;8.542;2022-10-16T04:43:45;6.10;;;4.87;;
3054;SDS011;1537;52.018;8.542;2022-10-16T04:47:09;5.30;;;4.00;;
3054;SDS011;1537;52.018;8.542;2022-10-16T04:50:36;5.57;;;4.53;;
3054;SDS011;1537;52.018;8.542;2022-10-16T04:54:02;6.83;;;4.97;;
3054;SDS011;1537;52.018;8.542;2022-10-16T04:57:29;5.83;;;4.17;;
3054;SDS011;1537;52.018;8.542;2022-10-16T05:00:53;6.77;;;3.93;;
3054;SDS011;1537;52.018;8.542;2022-10-16T05:04:17;5.60;;;4.10;;
3054;SDS011;1537;52.018;8.542;2022-10-16T05:07:46;5.70;;;3.83;;
3054;SDS011;1537;52.018;8.542;2022-10-16T05:11:12;4.40;;;3.77;;
3054;SDS011;1537;52.018;8.542;2022-10-16T05:14:35;6.93;;;4.07;;
3054;SDS011;1537;52.018;8.542;2022-10-16T05:17:59;4.80;;;4.27;;
3054;SDS011;1537;52.018;8.542;2022-10-16T05:21:26;5.60;;;4.00;;
3054;SDS011;1537;52.018;8.542;2022-10-16T05:24:50;4.50;;;3.73;;
3054;SDS011;1537;52.018;8.542;2022-10-16T05:28:16;6.30;;;3.63;;
3054;SDS011;1537;52.018;8.542;2022-10-16T05:31:42;4.70;;;3.90;;
3054;SDS011;1537;52.018;8.542;2022-10-16T05:35:07;12.30;;;4.80;;
3054;SDS011;1537;52.018;8.542;2022-10-16T05:38:33;5.03;;;4.17;;
3054;SDS011;1537;52.018;8.542;2022-10-16T05:41:58;5.33;;;4.27;;
3054;SDS011;1537;52.018;8.542;2022-10-16T05:45:24;8.40;;;4.10;;
3054;SDS011;1537;52.018;8.542;2022-10-16T05:48:51;5.90;;;3.60;;
3054;SDS011;1537;52.018;8.542;2022-10-16T05:52:15;5.17;;;4.33;;
3054;SDS011;1537;52.018;8.542;2022-10-16T05:55:40;9.87;;;3.83;;
3054;SDS011;1537;52.018;8.542;2022-10-16T05:59:06;4.77;;;3.80;;
3054;SDS011;1537;52.018;8.542;2022-10-16T06:02:31;5.07;;;3.47;;
3054;SDS011;1537;52.018;8.542;2022-10-16T06:05:56;4.70;;;3.30;;
3054;SDS011;1537;52.018;8.542;2022-10-16T06:09:20;4.57;;;3.10;;
3054;SDS011;1537;52.018;8.542;2022-10-16T06:12:46;9.93;;;3.60;;
3054;SDS011;1537;52.018;8.542;2022-10-16T06:16:10;4.80;;;3.43;;
3054;SDS011;1537;52.018;8.542;2022-10-16T06:19:36;5.33;;;3.40;;
3054;SDS011;1537;52.018;8.542;2022-10-16T06:23:01;6.07;;;4.07;;
3054;SDS011;1537;52.018;8.542;2022-10-16T06:26:29;5.53;;;3.73;;
3054;SDS011;1537;52.018;8.542;2022-10-16T06:29:55;9.10;;;3.37;;
3054;SDS011;1537;52.018;8.542;2022-10-16T06:33:20;6.57;;;3.50;;
3054;SDS011;1537;52.018;8.542;2022-10-16T06:36:45;3.90;;;3.03;;
3054;SDS011;1537;52.018;8.542;2022-10-16T06:40:10;4.37;;;3.07;;
3054;SDS011;1537;52.018;8.542;2022-10-16T06:43:38;4.47;;;3.40;;
3054;SDS011;1537;52.018;8.542;2022-10-16T06:47:02;5.00;;;3.03;;
3054;SDS011;1537;52.018;8.542;2022-10-16T06:50:27;5.10;;;3.53;;
3054;SDS011;1537;52.018;8.542;2022-10-16T06:53:54;6.93;;;2.90;;
3054;SDS011;1537;52.018;8.542;2022-10-16T06:57:26;6.90;;;3.63;;
3054;SDS011;1537;52.018;8.542;2022-10-16T07:00:54;4.40;;;3.70;;
3054;SDS011;1537;52.018;8.542;2022-10-16T07:04:18;5.93;;;3.57;;
3054;SDS011;1537;52.018;8.542;2022-10-16T07:07:43;4.83;;;3.07;;
3054;SDS011;1537;52.018;8.542;2022-10-16T07:11:09;5.17;;;2.70;;
3054;SDS011;1537;52.018;8.542;2022-10-16T07:14:34;5.60;;;2.90;;
3054;SDS011;1537;52.018;8.542;2022-10-16T07:17:58;4.03;;;2.40;;
3054;SDS011;1537;52.018;8.542;2022-10-16T07:21:22;4.40;;;2.30;;
3054;SDS011;1537;52.018;8.542;2022-10-16T07:24:48;7.67;;;2.87;;
3054;SDS011;1537;52.018;8.542;2022-10-16T07:28:15;4.97;;;2.40;;
3054;SDS011;1537;52.018;8.542;2022-10-16T07:31:40;5.43;;;2.30;;
3054;SDS011;1537;52.018;8.542;2022-10-16T07:35:06;3.77;;;2.00;;
3054;SDS011;1537;52.018;8.542;2022-10-16T07:38:33;5.87;;;2.50;;
3054;SDS011;1537;52.018;8.542;2022-10-16T07:41:56;4.83;;;2.53;;
3054;SDS011;1537;52.018;8.542;2022-10-16T07:45:21;5.03;;;2.30;;
3054;SDS011;1537;52.018;8.542;2022-10-16T07:48:45;7.57;;;2.87;;
3054;SDS011;1537;52.018;8.542;2022-10-16T07:52:10;5.03;;;2.57;;
3054;SDS011;1537;52.018;8.542;2022-10-16T07:55:33;4.67;;;2.40;;
3054;SDS011;1537;52.018;8.542;2022-10-16T07:58:57;7.90;;;2.63;;
3054;SDS011;1537;52.018;8.542;2022-10-16T08:02:22;6.17;;;2.70;;
3054;SDS011;1537;52.018;8.542;2022-10-16T08:05:46;4.40;;;2.40;;
3054;SDS011;1537;52.018;8.542;2022-10-16T08:09:10;6.70;;;2.97;;
3054;SDS011;1537;52.018;8.542;2022-10-16T08:12:33;7.47;;;2.50;;
3054;SDS011;1537;52.018;8.542;2022-10-16T08:15:57;5.10;;;2.70;;
3054;SDS011;1537;52.018;8.542;2022-10-16T08:19:22;9.10;;;2.37;;
3054;SDS011;1537;52.018;8.542;2022-10-16T08:22:46;7.13;;;2.80;;
3054;SDS011;1537;52.018;8.542;2022-10-16T08:26:10;4.63;;;2.57;;
3054;SDS011;1537;52.018;8.542;2022-10-16T08:29:34;7.00;;;3.97;;
3054;SDS011;1537;52.018;8.542;2022-10-16T08:32:58;5.20;;;3.17;;
3054;SDS011;1537;52.018;8.542;2022-10-16T08:36:23;4.70;;;2.37;;
3054;SDS011;1537;52.018;8.542;2022-10-16T08:39:47;6.03;;;2.70;;
3054;SDS011;1537;52.018;8.542;2022-10-16T08:43:15;6.97;;;2.97;;
3054;SDS011;1537;52.018;8.542;2022-10-16T08:46:56;7.70;;;2.97;;
3054;SDS011;1537;52.018;8.542;2022-10-16T08:50:29;5.00;;;2.70;;
3054;SDS011;1537;52.018;8.542;2022-10-16T08:53:56;5.43;;;3.23;;
3054;SDS011;1537;52.018;8.542;2022-10-16T08:57:21;5.70;;;2.60;;
3054;SDS011;1537;52.018;8.542;2022-10-16T09:00:48;5.70;;;2.80;;
3054;SDS011;1537;52.018;8.542;2022-10-16T09:04:35;5.17;;;2.70;;
3054;SDS011;1537;52.018;8.542;2022-10-16T09:08:19;4.97;;;2.73;;
3054;SDS011;1537;52.018;8.542;2022-10-16T09:11:52;8.43;;;2.90;;
3054;SDS011;1537;52.018;8.542;2022-10-16T09:15:24;5.87;;;2.63;;
3054;SDS011;1537;52.018;8.542;2022-10-16T09:18:55;7.87;;;2.77;;
3054;SDS011;1537;52.018;8.542;2022-10-16T09:22:25;5.70;;;2.40;;
3054;SDS011;1537;52.018;8.542;2022-10-16T09:25:51;5.47;;;2.70;;
3054;SDS011;1537;52.018;8.542;2022-10-16T09:29:18;7.33;;;3.03;;
3054;SDS011;1537;52.018;8.542;2022-10-16T09:32:43;6.60;;;2.50;;
3054;SDS011;1537;52.018;8.542;2022-10-16T09:36:09;7.03;;;2.53;;
3054;SDS011;1537;52.018;8.542;2022-10-16T09:39:43;5.17;;;2.60;;
3054;SDS011;1537;52.018;8.542;2022-10-16T09:43:14;5.23;;;2.77;;
3054;SDS011;1537;52.018;8.542;2022-10-16T09:46:46;4.83;;;2.33;;
3054;SDS011;1537;52.018;8.542;2022-10-16T09:50:19;5.07;;;2.30;;
3054;SDS011;1537;52.018;8.542;2022-10-16T09:53:45;5.87;;;1.93;;
3054;SDS011;1537;52.018;8.542;2022-10-16T09:57:11;4.87;;;2.10;;
3054;SDS011;1537;52.018;8.542;2022-10-16T10:00:36;5.10;;;2.33;;
3054;SDS011;1537;52.018;8.542;2022-10-16T10:04:05;5.50;;;2.17;;
3054;SDS011;1537;52.018;8.542;2022-10-16T10:07:31;9.47;;;2.50;;
3054;SDS011;1537;52.018;8.542;2022-10-16T10:10:56;5.83;;;2.20;;
3054;SDS011;1537;52.018;8.542;2022-10-16T10:14:21;4.93;;;2.00;;
3054;SDS011;1537;52.018;8.542;2022-10-16T10:17:50;5.33;;;2.17;;
3054;SDS011;1537;52.018;8.542;2022-10-16T10:21:17;5.80;;;2.40;;
3054;SDS011;1537;52.018;8.542;2022-10-16T10:24:40;6.83;;;2.23;;
3054;SDS011;1537;52.018;8.542;2022-10-16T10:28:21;4.27;;;2.03;;
3054;SDS011;1537;52.018;8.542;2022-10-16T10:32:11;6.10;;;2.10;;
3054;SDS011;1537;52.018;8.542;2022-10-16T10:35:47;9.30;;;2.50;;
3054;SDS011;1537;52.018;8.542;2022-10-16T10:39:20;5.00;;;2.30;;
3054;SDS011;1537;52.018;8.542;2022-10-16T10:42:50;5.50;;;2.20;;
3054;SDS011;1537;52.018;8.542;2022-10-16T10:46:21;5.03;;;2.50;;
3054;SDS011;1537;52.018;8.542;2022-10-16T10:49:54;6.30;;;2.40;;
3054;SDS011;1537;52.018;8.542;2022-10-16T10:53:30;5.57;;;2.30;;
3054;SDS011;1537;52.018;8.542;2022-10-16T10:57:06;5.57;;;2.00;;
3054;SDS011;1537;52.018;8.542;2022-10-16T11:00:41;4.70;;;2.30;;
3054;SDS011;1537;52.018;8.542;2022-10-16T11:04:18;7.03;;;3.10;;
3054;SDS011;1537;52.018;8.542;2022-10-16T11:07:57;6.03;;;2.73;;
3054;SDS011;1537;52.018;8.542;2022-10-16T11:11:24;6.30;;;3.67;;
3054;SDS011;1537;52.018;8.542;2022-10-16T11:14:56;5.70;;;2.30;;
3054;SDS011;1537;52.018;8.542;2022-10-16T11:18:25;7.60;;;2.03;;
3054;SDS011;1537;52.018;8.542;2022-10-16T11:21:54;4.57;;;2.30;;
3054;SDS011;1537;52.018;8.542;2022-10-16T11:25:27;4.97;;;2.30;;
3054;SDS011;1537;52.018;8.542;2022-10-16T11:28:53;5.57;;;1.90;;
3054;SDS011;1537;52.018;8.542;2022-10-16T11:32:22;4.50;;;2.23;;
3054;SDS011;1537;52.018;8.542;2022-10-16T11:35:51;5.17;;;2.20;;
3054;SDS011;1537;52.018;8.542;2022-10-16T11:39:19;5.80;;;2.13;;
3054;SDS011;1537;52.018;8.542;2022-10-16T11:42:46;4.57;;;2.70;;
3054;SDS011;1537;52.018;8.542;2022-10-16T11:46:19;8.50;;;2.57;;
3054;SDS011;1537;52.018;8.542;2022-10-16T11:49:49;5.70;;;2.03;;
3054;SDS011;1537;52.018;8.542;2022-10-16T11:53:20;4.40;;;2.20;;
3054;SDS011;1537;52.018;8.542;2022-10-16T11:56:52;6.30;;;2.30;;
3054;SDS011;1537;52.018;8.542;2022-10-16T12:00:21;5.07;;;2.07;;
3054;SDS011;1537;52.018;8.542;2022-10-16T12:03:55;5.10;;;2.20;;
3054;SDS011;1537;52.018;8.542;2022-10-16T12:07:35;8.77;;;2.30;;
3054;SDS011;1537;52.018;8.542;2022-10-16T12:11:20;10.60;;;2.00;;
3054;SDS011;1537;52.018;8.542;2022-10-16T12:15:00;4.57;;;2.13;;
3054;SDS011;1537;52.018;8.542;2022-10-16T12:18:46;6.87;;;2.70;;
3054;SDS011;1537;52.018;8.542;2022-10-16T12:22:15;4.43;;;2.53;;
3054;SDS011;1537;52.018;8.542;2022-10-16T12:25:53;4.10;;;2.23;;
3054;SDS011;1537;52.018;8.542;2022-10-16T12:29:23;6.37;;;2.10;;
3054;SDS011;1537;52.018;8.542;2022-10-16T12:32:56;4.27;;;1.90;;
3054;SDS011;1537;52.018;8.542;2022-10-16T12:36:28;4.20;;;2.10;;
3054;SDS011;1537;52.018;8.542;2022-10-16T12:39:55;6.80;;;2.70;;
3054;SDS011;1537;52.018;8.542;2022-10-16T12:43:26;5.17;;;2.23;;
3054;SDS011;1537;52.018;8.542;2022-10-16T12:47:01;7.97;;;2.17;;
3054;SDS011;1537;52.018;8.542;2022-10-16T12:50:30;8.10;;;2.33;;
3054;SDS011;1537;52.018;8.542;2022-10-16T12:54:00;4.90;;;2.23;;
3054;SDS011;1537;52.018;8.542;2022-10-16T12:57:38;4.10;;;2.10;;
3054;SDS011;1537;52.018;8.542;2022-10-16T13:01:12;6.93;;;2.63;;
3054;SDS011;1537;52.018;8.542;2022-10-16T13:04:52;5.77;;;2.60;;
3054;SDS011;1537;52.018;8.542;2022-10-16T13:08:32;4.40;;;2.20;;
3054;SDS011;1537;52.018;8.542;2022-10-16T13:12:15;4.60;;;2.50;;
3054;SDS011;1537;52.018;8.542;2022-10-16T13:16:00;5.80;;;2.60;;
3054;SDS011;1537;52.018;8.542;2022-10-16T13:19:35;5.43;;;2.70;;
3054;SDS011;1537;52.018;8.542;2022-10-16T13:23:13;4.63;;;2.73;;
3054;SDS011;1537;52.018;8.542;2022-10-16T13:26:49;5.70;;;2.40;;
3054;SDS011;1537;52.018;8.542;2022-10-16T13:30:23;4.07;;;2.10;;
3054;SDS011;1537;52.018;8.542;2022-10-16T13:33:55;4.00;;;2.03;;
3054;SDS011;1537;52.018;8.542;2022-10-16T13:37:28;4.73;;;2.27;;
3054;SDS011;1537;52.018;8.542;2022-10-16T13:40:53;4.67;;;2.03;;
3054;SDS011;1537;52.018;8.542;2022-10-16T13:44:18;6.80;;;2.30;;
3054;SDS011;1537;52.018;8.542;2022-10-16T13:47:43;7.03;;;2.43;;
3054;SDS011;1537;52.018;8.542;2022-10-16T13:51:11;10.77;;;2.63;;
3054;SDS011;1537;52.018;8.542;2022-10-16T13:54:39;7.30;;;2.73;;
3054;SDS011;1537;52.018;8.542;2022-10-16T13:58:07;5.90;;;2.60;;
3054;SDS011;1537;52.018;8.542;2022-10-16T14:01:39;6.57;;;2.10;;
3054;SDS011;1537;52.018;8.542;2022-10-16T14:05:08;6.23;;;2.30;;
3054;SDS011;1537;52.018;8.542;2022-10-16T14:08:33;5.27;;;2.47;;
3054;SDS011;1537;52.018;8.542;2022-10-16T14:12:01;5.17;;;1.97;;
3054;SDS011;1537;52.018;8.542;2022-10-16T14:15:26;5.13;;;2.70;;
3054;SDS011;1537;52.018;8.542;2022-10-16T14:18:55;5.97;;;2.37;;
3054;SDS011;1537;52.018;8.542;2022-10-16T14:22:24;7.87;;;2.40;;
3054;SDS011;1537;52.018;8.542;2022-10-16T14:25:52;5.57;;;2.67;;
3054;SDS011;1537;52.018;8.542;2022-10-16T14:29:18;4.30;;;2.10;;
3054;SDS011;1537;52.018;8.542;2022-10-16T14:32:52;5.10;;;2.33;;
3054;SDS011;1537;52.018;8.542;2022-10-16T14:36:17;7.40;;;2.67;;
3054;SDS011;1537;52.018;8.542;2022-10-16T14:39:42;9.30;;;2.50;;
3054;SDS011;1537;52.018;8.542;2022-10-16T14:43:14;4.90;;;2.30;;
3054;SDS011;1537;52.018;8.542;2022-10-16T14:46:45;7.60;;;2.40;;
3054;SDS011;1537;52.018;8.542;2022-10-16T14:50:09;6.43;;;2.27;;
3054;SDS011;1537;52.018;8.542;2022-10-16T14:53:33;5.10;;;2.37;;
3054;SDS011;1537;52.018;8.542;2022-10-16T14:56:57;5.87;;;2.30;;
3054;SDS011;1537;52.018;8.542;2022-10-16T15:00:22;5.50;;;2.07;;
3054;SDS011;1537;52.018;8.542;2022-10-16T15:03:48;4.93;;;2.87;;
3054;SDS011;1537;52.018;8.542;2022-10-16T15:07:14;6.53;;;2.77;;
3054;SDS011;1537;52.018;8.542;2022-10-16T15:10:38;4.30;;;2.07;;
3054;SDS011;1537;52.018;8.542;2022-10-16T15:14:04;5.33;;;2.20;;
3054;SDS011;1537;52.018;8.542;2022-10-16T15:17:28;7.20;;;2.60;;
3054;SDS011;1537;52.018;8.542;2022-10-16T15:20:53;5.60;;;2.70;;
3054;SDS011;1537;52.018;8.542;2022-10-16T15:24:16;7.60;;;3.03;;
3054;SDS011;1537;52.018;8.542;2022-10-16T15:27:42;6.40;;;2.90;;
3054;SDS011;1537;52.018;8.542;2022-10-16T15:31:06;5.53;;;2.43;;
3054;SDS011;1537;52.018;8.542;2022-10-16T15:34:29;6.10;;;2.90;;
3054;SDS011;1537;52.018;8.542;2022-10-16T15:37:55;5.30;;;2.90;;
3054;SDS011;1537;52.018;8.542;2022-10-16T15:41:18;4.80;;;2.60;;
3054;SDS011;1537;52.018;8.542;2022-10-16T15:44:42;7.20;;;4.10;;
3054;SDS011;1537;52.018;8.542;2022-10-16T15:48:08;10.13;;;4.43;;
3054;SDS011;1537;52.018;8.542;2022-10-16T15:51:36;7.33;;;3.53;;
3054;SDS011;1537;52.018;8.542;2022-10-16T15:55:03;5.40;;;3.23;;
3054;SDS011;1537;52.018;8.542;2022-10-16T15:58:27;14.13;;;3.23;;
3054;SDS011;1537;52.018;8.542;2022-10-16T16:01:51;5.70;;;3.33;;
3054;SDS011;1537;52.018;8.542;2022-10-16T16:05:15;6.90;;;2.93;;
3054;SDS011;1537;52.018;8.542;2022-10-16T16:08:39;8.73;;;4.70;;
3054;SDS011;1537;52.018;8.542;2022-10-16T16:12:04;10.83;;;7.13;;
3054;SDS011;1537;52.018;8.542;2022-10-16T16:15:27;12.53;;;6.40;;
3054;SDS011;1537;52.018;8.542;2022-10-16T16:18:52;12.63;;;5.67;;
3054;SDS011;1537;52.018;8.542;2022-10-16T16:22:15;14.83;;;5.53;;
3054;SDS011;1537;52.018;8.542;2022-10-16T16:25:39;7.37;;;4.20;;
3054;SDS011;1537;52.018;8.542;2022-10-16T16:29:04;17.00;;;5.93;;
3054;SDS011;1537;52.018;8.542;2022-10-16T16:32:28;8.63;;;5.23;;
3054;SDS011;1537;52.018;8.542;2022-10-16T16:35:55;11.00;;;5.27;;
3054;SDS011;1537;52.018;8.542;2022-10-16T16:39:20;12.33;;;7.53;;
3054;SDS011;1537;52.018;8.542;2022-10-16T16:42:46;10.07;;;7.70;;
3054;SDS011;1537;52.018;8.542;2022-10-16T16:46:12;9.43;;;6.37;;
3054;SDS011;1537;52.018;8.542;2022-10-16T16:49:36;11.20;;;5.53;;
3054;SDS011;1537;52.018;8.542;2022-10-16T16:53:00;10.23;;;6.33;;
3054;SDS011;1537;52.018;8.542;2022-10-16T16:56:24;11.83;;;6.97;;
3054;SDS011;1537;52.018;8.542;2022-10-16T16:59:49;8.33;;;6.07;;
3054;SDS011;1537;52.018;8.542;2022-10-16T17:03:15;12.50;;;7.80;;
3054;SDS011;1537;52.018;8.542;2022-10-16T17:06:38;9.80;;;7.10;;
3054;SDS011;1537;52.018;8.542;2022-10-16T17:10:03;14.80;;;6.47;;
3054;SDS011;1537;52.018;8.542;2022-10-16T17:13:27;13.30;;;6.10;;
3054;SDS011;1537;52.018;8.542;2022-10-16T17:16:52;10.10;;;6.30;;
3054;SDS011;1537;52.018;8.542;2022-10-16T17:20:17;10.97;;;6.77;;
3054;SDS011;1537;52.018;8.542;2022-10-16T17:23:41;8.50;;;6.37;;
3054;SDS011;1537;52.018;8.542;2022-10-16T17:27:05;10.97;;;6.17;;
3054;SDS011;1537;52.018;8.542;2022-10-16T17:30:29;9.40;;;5.80;;
3054;SDS011;1537;52.018;8.542;2022-10-16T17:33:52;9.77;;;5.70;;
3054;SDS011;1537;52.018;8.542;2022-10-16T17:37:18;8.17;;;6.57;;
3054;SDS011;1537;52.018;8.542;2022-10-16T17:40:41;11.90;;;6.83;;
3054;SDS011;1537;52.018;8.542;2022-10-16T17:44:06;8.27;;;6.40;;
3054;SDS011;1537;52.018;8.542;2022-10-16T17:47:30;13.07;;;7.20;;
3054;SDS011;1537;52.018;8.542;2022-10-16T17:50:54;10.93;;;6.20;;
3054;SDS011;1537;52.018;8.542;2022-10-16T17:54:19;9.80;;;5.80;;
3054;SDS011;1537;52.018;8.542;2022-10-16T17:57:43;8.33;;;6.00;;
3054;SDS011;1537;52.018;8.542;2022-10-16T18:01:13;11.37;;;7.23;;
3054;SDS011;1537;52.018;8.542;2022-10-16T18:04:37;11.53;;;8.57;;
3054;SDS011;1537;52.018;8.542;2022-10-16T18:08:01;15.10;;;7.13;;
3054;SDS011;1537;52.018;8.542;2022-10-16T18:11:27;13.97;;;9.00;;
3054;SDS011;1537;52.018;8.542;2022-10-16T18:14:51;12.50;;;9.20;;
3054;SDS011;1537;52.018;8.542;2022-10-16T18:18:19;15.40;;;9.87;;
3054;SDS011;1537;52.018;8.542;2022-10-16T18:21:48;15.97;;;11.73;;
3054;SDS011;1537;52.018;8.542;2022-10-16T18:25:11;18.17;;;11.30;;
3054;SDS011;1537;52.018;8.542;2022-10-16T18:28:37;22.90;;;13.97;;
3054;SDS011;1537;52.018;8.542;2022-10-16T18:32:01;15.90;;;12.37;;
3054;SDS011;1537;52.018;8.542;2022-10-16T18:35:24;13.50;;;11.13;;
3054;SDS011;1537;52.018;8.542;2022-10-16T18:38:48;11.60;;;9.30;;
3054;SDS011;1537;52.018;8.542;2022-10-16T18:42:11;17.00;;;11.40;;
3054;SDS011;1537;52.018;8.542;2022-10-16T18:45:36;16.00;;;12.20;;
3054;SDS011;1537;52.018;8.542;2022-10-16T18:49:00;12.53;;;9.70;;
3054;SDS011;1537;52.018;8.542;2022-10-16T18:52:25;14.57;;;10.00;;
3054;SDS011;1537;52.018;8.542;2022-10-16T18:55:52;11.20;;;7.27;;
3054;SDS011;1537;52.018;8.542;2022-10-16T18:59:16;15.83;;;9.20;;
3054;SDS011;1537;52.018;8.542;2022-10-16T19:02:41;11.40;;;9.20;;
3054;SDS011;1537;52.018;8.542;2022-10-16T19:06:06;15.63;;;9.47;;
3054;SDS011;1537;52.018;8.542;2022-10-16T19:09:31;14.50;;;10.10;;
3054;SDS011;1537;52.018;8.542;2022-10-16T19:12:55;12.97;;;8.47;;
3054;SDS011;1537;52.018;8.542;2022-10-16T19:16:32;13.47;;;9.23;;
3054;SDS011;1537;52.018;8.542;2022-10-16T19:20:09;13.83;;;9.00;;
3054;SDS011;1537;52.018;8.542;2022-10-16T19:23:36;14.90;;;8.90;;
3054;SDS011;1537;52.018;8.542;2022-10-16T19:27:10;15.50;;;10.20;;
3054;SDS011;1537;52.018;8.542;2022-10-16T19:30:36;15.20;;;10.70;;
3054;SDS011;1537;52.018;8.542;2022-10-16T19:34:01;16.07;;;12.80;;
3054;SDS011;1537;52.018;8.542;2022-10-16T19:37:31;16.97;;;12.30;;
3054;SDS011;1537;52.018;8.542;2022-10-16T19:41:00;15.23;;;12.20;;
3054;SDS011;1537;52.018;8.542;2022-10-16T19:44:28;16.97;;;12.77;;
3054;SDS011;1537;52.018;8.542;2022-10-16T19:47:55;16.57;;;11.10;;
3054;SDS011;1537;52.018;8.542;2022-10-16T19:51:22;19.93;;;12.20;;
3054;SDS011;1537;52.018;8.542;2022-10-16T19:54:59;16.27;;;10.33;;
3054;SDS011;1537;52.018;8.542;2022-10-16T19:58:23;14.63;;;9.40;;
3054;SDS011;1537;52.018;8.542;2022-10-16T20:01:50;13.83;;;8.60;;
3054;SDS011;1537;52.018;8.542;2022-10-16T20:05:17;11.97;;;7.10;;
3054;SDS011;1537;52.018;8.542;2022-10-16T20:08:52;10.37;;;7.13;;
3054;SDS011;1537;52.018;8.542;2022-10-16T20:12:22;11.77;;;6.00;;
3054;SDS011;1537;52.018;8.542;2022-10-16T20:15:46;13.53;;;8.50;;
3054;SDS011;1537;52.018;8.542;2022-10-16T20:19:16;12.37;;;8.13;;
3054;SDS011;1537;52.018;8.542;2022-10-16T20:22:42;15.13;;;8.53;;
3054;SDS011;1537;52.018;8.542;2022-10-16T20:26:14;12.90;;;8.43;;
3054;SDS011;1537;52.018;8.542;2022-10-16T20:29:51;13.67;;;8.00;;
3054;SDS011;1537;52.018;8.542;2022-10-16T20:33:20;14.37;;;8.97;;
3054;SDS011;1537;52.018;8.542;2022-10-16T20:36:48;13.33;;;8.70;;
3054;SDS011;1537;52.018;8.542;2022-10-16T20:40:13;12.47;;;8.53;;
3054;SDS011;1537;52.018;8.542;2022-10-16T20:43:40;13.43;;;10.10;;
3054;SDS011;1537;52.018;8.542;2022-10-16T20:47:13;12.40;;;8.27;;
3054;SDS011;1537;52.018;8.542;2022-10-16T20:50:40;12.93;;;7.10;;
3054;SDS011;1537;52.018;8.542;2022-10-16T20:54:04;6.40;;;4.67;;
3054;SDS011;1537;52.018;8.542;2022-10-16T20:57:28;6.17;;;3.70;;
3054;SDS011;1537;52.018;8.542;2022-10-16T21:00:51;5.23;;;3.27;;
3054;SDS011;1537;52.018;8.542;2022-10-16T21:04:17;4.23;;;2.80;;
3054;SDS011;1537;52.018;8.542;2022-10-16T21:07:44;4.60;;;2.90;;
3054;SDS011;1537;52.018;8.542;2022-10-16T21:11:12;3.90;;;2.87;;
3054;SDS011;1537;52.018;8.542;2022-10-16T21:14:37;3.87;;;2.77;;
3054;SDS011;1537;52.018;8.542;2022-10-16T21:18:21;4.50;;;2.60;;
3054;SDS011;1537;52.018;8.542;2022-10-16T21:21:49;4.80;;;3.33;;